Time;durP1;ratioP1;P1;durP2;ratioP2;P2;SDS_P1;SDS_P2;PMS_P1;PMS_P2;Temp;Humidity;BMP_temperature;BMP_pressure;BME280_temperature;BME280_humidity;BME280_pressure;Samples;Min_cycle;Max_cycle;Signal;HPM_P1;HPM_P2
2021/05/20 00:04:17;;;;;;;2.13;1.10;;;;;;;8.56;100.00;99355.03;10495267;28;20210;-78
2021/05/20 00:09:36;;;;;;;0.87;0.53;;;;;;;8.50;100.00;99351.03;10495831;28;20179;-80
2021/05/20 00:14:55;;;;;;;2.20;1.10;;;;;;;8.42;100.00;99347.47;10496383;28;20555;-83
2021/05/20 00:20:14;;;;;;;1.53;0.87;;;;;;;8.43;100.00;99348.25;10495206;28;20167;-81
2021/05/20 00:25:34;;;;;;;1.37;1.00;;;;;;;8.50;100.00;99349.09;10500065;28;20211;-80
2021/05/20 00:30:53;;;;;;;1.47;1.00;;;;;;;8.64;100.00;99346.47;10504292;28;20270;-80
2021/05/20 00:36:11;;;;;;;1.10;0.93;;;;;;;8.49;100.00;99344.78;10502549;28;20266;-79
2021/05/20 00:41:30;;;;;;;0.97;0.60;;;;;;;8.32;100.00;99352.88;10503599;28;20665;-83
2021/05/20 00:46:49;;;;;;;2.70;1.00;;;;;;;8.26;100.00;99354.34;10502904;28;20198;-78
2021/05/20 00:52:08;;;;;;;0.90;0.70;;;;;;;8.16;100.00;99353.09;10502132;28;20171;-80
2021/05/20 00:57:27;;;;;;;1.00;0.70;;;;;;;8.16;100.00;99355.03;10503242;28;20688;-78
2021/05/20 01:02:46;;;;;;;1.83;0.90;;;;;;;8.15;100.00;99353.47;10501409;28;20456;-80
2021/05/20 01:08:05;;;;;;;1.07;0.93;;;;;;;8.01;100.00;99361.50;10502709;28;20175;-77
2021/05/20 01:13:24;;;;;;;0.80;0.43;;;;;;;7.94;100.00;99358.69;10502542;28;20182;-80
2021/05/20 01:18:43;;;;;;;1.20;0.90;;;;;;;7.92;100.00;99372.78;10501040;28;20175;-78
2021/05/20 01:24:03;;;;;;;0.90;0.50;;;;;;;7.79;100.00;99367.91;10501766;28;20297;-79
2021/05/20 01:29:22;;;;;;;1.17;0.83;;;;;;;7.72;100.00;99367.03;10501493;28;20207;-81
2021/05/20 01:34:41;;;;;;;0.93;0.67;;;;;;;7.92;100.00;99369.22;10500176;28;20178;-78
2021/05/20 01:40:00;;;;;;;1.00;0.83;;;;;;;7.79;100.00;99365.19;10501695;28;20195;-77
2021/05/20 01:45:19;;;;;;;1.33;1.23;;;;;;;7.82;100.00;99369.13;10500959;28;20596;-78
2021/05/20 01:50:38;;;;;;;2.03;0.77;;;;;;;7.88;100.00;99373.09;10499582;28;20633;-81
2021/05/20 01:55:57;;;;;;;1.90;0.97;;;;;;;7.88;100.00;99376.63;10500634;28;20195;-77
2021/05/20 02:01:16;;;;;;;1.00;0.63;;;;;;;7.79;100.00;99378.88;10500446;28;20178;-78
2021/05/20 02:06:35;;;;;;;1.10;0.60;;;;;;;7.70;100.00;99383.84;10498434;28;20207;-76
2021/05/20 02:11:54;;;;;;;0.90;0.67;;;;;;;7.62;100.00;99378.66;10500069;28;20214;-82
2021/05/20 02:17:13;;;;;;;1.63;0.87;;;;;;;7.59;100.00;99388.38;10500175;28;20178;-80
2021/05/20 02:22:32;;;;;;;0.90;0.57;;;;;;;7.63;100.00;99389.22;10499564;28;20218;-81
2021/05/20 02:27:51;;;;;;;1.20;1.10;;;;;;;7.63;100.00;99388.47;10499331;28;20223;-81
2021/05/20 02:33:11;;;;;;;1.20;0.90;;;;;;;7.67;100.00;99392.81;10497996;28;20627;-82
2021/05/20 02:38:30;;;;;;;1.63;1.07;;;;;;;7.66;100.00;99383.03;10499078;28;20183;-80
2021/05/20 02:43:49;;;;;;;3.33;0.83;;;;;;;7.50;100.00;99382.44;10498708;28;20202;-81
2021/05/20 02:49:08;;;;;;;0.90;0.70;;;;;;;7.74;100.00;99394.84;10496655;28;20202;-80
2021/05/20 02:54:27;;;;;;;0.90;0.60;;;;;;;7.75;100.00;99394.47;10498429;28;20589;-79
2021/05/20 02:59:46;;;;;;;1.87;0.90;;;;;;;7.79;100.00;99403.53;10498339;28;20171;-79
2021/05/20 03:05:07;;;;;;;1.70;1.13;;;;;;;7.80;100.00;99394.16;10496923;28;20202;-79
2021/05/20 03:10:26;;;;;;;1.30;0.63;;;;;;;7.81;100.00;99398.47;10497998;28;20569;-79
2021/05/20 03:15:45;;;;;;;1.07;0.80;;;;;;;7.73;100.00;99405.00;10497853;28;20521;-82
2021/05/20 03:21:04;;;;;;;2.93;1.00;;;;;;;7.77;100.00;99416.00;10495419;28;20246;-79
2021/05/20 03:26:24;;;;;;;1.30;0.97;;;;;;;7.69;100.00;99409.63;10496972;28;20238;-77
2021/05/20 03:31:42;;;;;;;0.93;0.80;;;;;;;7.60;100.00;99422.81;10497656;28;20174;-81
2021/05/20 03:37:03;;;;;;;1.73;1.07;;;;;;;7.60;100.00;99428.28;10495009;28;20167;-80
2021/05/20 03:42:22;;;;;;;1.00;0.77;;;;;;;7.68;100.00;99427.22;10497343;28;20580;-79
2021/05/20 03:47:41;;;;;;;0.90;0.60;;;;;;;7.78;100.00;99418.38;10495798;28;20178;-76
2021/05/20 03:53:00;;;;;;;1.00;0.87;;;;;;;7.82;100.00;99421.16;10497161;28;20208;-79
2021/05/20 03:58:20;;;;;;;1.07;0.70;;;;;;;7.79;100.00;99430.13;10499280;28;20552;-77
2021/05/20 04:03:39;;;;;;;1.00;0.80;;;;;;;7.89;100.00;99438.47;10503752;28;20566;-76
2021/05/20 04:08:57;;;;;;;1.33;0.77;;;;;;;8.06;100.00;99440.63;10505044;28;20246;-78
2021/05/20 04:14:16;;;;;;;1.97;1.20;;;;;;;8.05;100.00;99445.31;10504939;28;20171;-76
2021/05/20 04:19:35;;;;;;;0.90;0.80;;;;;;;8.00;100.00;99453.06;10503199;28;20202;-76
2021/05/20 04:24:54;;;;;;;1.57;1.07;;;;;;;8.09;100.00;99457.13;10502996;28;20217;-76
2021/05/20 04:30:14;;;;;;;1.07;0.77;;;;;;;8.09;100.00;99464.53;10503568;28;20226;-78
2021/05/20 04:35:33;;;;;;;0.90;0.73;;;;;;;8.12;100.00;99459.09;10502455;28;20536;-78
2021/05/20 04:40:53;;;;;;;1.37;1.13;;;;;;;8.27;100.00;99473.78;10517192;28;20178;-76
2021/05/20 04:46:12;;;;;;;0.93;0.73;;;;;;;8.33;100.00;99466.78;10502967;28;20235;-76
2021/05/20 04:51:31;;;;;;;1.33;1.23;;;;;;;8.43;100.00;99474.34;10502136;28;20179;-76
2021/05/20 04:56:50;;;;;;;3.40;1.87;;;;;;;8.59;100.00;99489.44;10503000;28;20191;-76
2021/05/20 05:02:09;;;;;;;1.00;0.80;;;;;;;8.78;100.00;99490.00;10502676;28;20170;-79
2021/05/20 05:07:28;;;;;;;1.00;0.87;;;;;;;9.05;100.00;99493.38;10501544;28;20216;-79
2021/05/20 05:12:47;;;;;;;1.10;0.83;;;;;;;9.19;100.00;99501.72;10501706;28;20179;-81
2021/05/20 05:18:06;;;;;;;3.43;1.17;;;;;;;9.07;100.00;99502.03;10501066;28;20621;-81
2021/05/20 05:23:27;;;;;;;1.70;1.37;;;;;;;9.05;100.00;99499.66;10501892;28;20695;-81
2021/05/20 05:28:46;;;;;;;1.20;1.10;;;;;;;9.16;100.00;99511.53;10501425;28;20226;-77
2021/05/20 05:34:05;;;;;;;1.00;0.80;;;;;;;9.25;100.00;99509.25;10500424;28;20175;-76
2021/05/20 05:39:24;;;;;;;0.90;0.60;;;;;;;9.36;100.00;99507.38;10501637;28;20178;-79
2021/05/20 05:45:40;;;;;;;4.63;1.70;;;;;;;9.48;100.00;99512.56;10500974;28;20210;-76
2021/05/20 05:50:59;;;;;;;3.57;1.50;;;;;;;9.67;100.00;99526.03;10499950;28;20179;-78
2021/05/20 05:56:18;;;;;;;6.80;1.47;;;;;;;9.55;100.00;99535.38;10500967;28;20222;-79
2021/05/20 06:01:39;;;;;;;1.10;1.00;;;;;;;9.58;100.00;99539.31;10499289;28;20170;-79
2021/05/20 06:06:58;;;;;;;2.27;1.60;;;;;;;9.61;100.00;99544.06;10498674;28;20218;-78
2021/05/20 06:12:17;;;;;;;2.67;1.73;;;;;;;9.86;100.00;99545.78;10500099;28;20170;-76
2021/05/20 06:17:37;;;;;;;1.10;0.83;;;;;;;10.05;100.00;99553.81;10498620;28;20171;-77
2021/05/20 06:22:56;;;;;;;4.30;1.63;;;;;;;10.13;100.00;99549.09;10498625;28;20632;-77
2021/05/20 06:28:15;;;;;;;2.03;1.20;;;;;;;10.17;100.00;99552.69;10498973;28;20222;-77
2021/05/20 06:33:34;;;;;;;1.37;1.27;;;;;;;10.29;100.00;99558.63;10498025;28;20600;-78
2021/05/20 06:38:53;;;;;;;1.57;1.47;;;;;;;10.60;100.00;99547.75;10498712;28;20620;-77
2021/05/20 06:44:12;;;;;;;1.77;1.30;;;;;;;10.89;100.00;99541.16;10492574;28;20220;-75
2021/05/20 06:49:31;;;;;;;2.37;2.20;;;;;;;10.88;100.00;99555.28;10475213;28;20175;-76
2021/05/20 06:54:50;;;;;;;2.03;1.83;;;;;;;10.94;100.00;99568.28;10476243;28;20230;-77
2021/05/20 07:00:10;;;;;;;1.87;1.60;;;;;;;10.96;100.00;99560.44;10487876;28;20182;-76
2021/05/20 07:05:29;;;;;;;4.17;2.27;;;;;;;11.17;100.00;99572.28;10496545;28;20202;-76
2021/05/20 07:10:48;;;;;;;3.57;2.60;;;;;;;11.41;100.00;99573.47;10498020;28;20178;-75
2021/05/20 07:16:08;;;;;;;2.77;2.57;;;;;;;11.65;100.00;99576.28;10497743;28;20206;-78
2021/05/20 07:21:27;;;;;;;2.87;2.57;;;;;;;11.84;100.00;99572.31;10496503;28;20186;-77
2021/05/20 07:26:46;;;;;;;2.90;2.70;;;;;;;11.43;100.00;99571.91;10496797;28;20261;-74
2021/05/20 07:32:07;;;;;;;5.63;2.20;;;;;;;11.62;100.00;99573.53;10496217;28;20170;-75
2021/05/20 07:37:26;;;;;;;3.43;3.17;;;;;;;11.93;100.00;99565.22;10496121;28;20178;-74
2021/05/20 07:42:46;;;;;;;4.53;2.67;;;;;;;12.45;100.00;99565.06;10496353;28;20171;-75
2021/05/20 07:48:06;;;;;;;8.00;2.00;;;;;;;12.41;100.00;99563.50;10495454;28;20166;-75
2021/05/20 07:53:25;;;;;;;3.87;2.73;;;;;;;11.92;100.00;99558.13;10495923;28;20210;-79
2021/05/20 07:58:44;;;;;;;3.67;2.70;;;;;;;11.82;100.00;99561.69;10497172;28;20171;-76
2021/05/20 08:04:12;;;;;;;5.53;3.30;;;;;;;11.71;100.00;99560.13;10495276;28;20214;-78
2021/05/20 08:09:37;;;;;;;4.20;2.67;;;;;;;11.77;100.00;99562.09;10496741;28;20250;-74
2021/05/20 08:14:56;;;;;;;2.60;2.40;;;;;;;11.67;100.00;99562.09;10495426;28;20171;-74
2021/05/20 08:20:15;;;;;;;6.33;3.40;;;;;;;11.80;100.00;99563.25;10493570;28;20175;-74
2021/05/20 08:25:35;;;;;;;3.07;2.80;;;;;;;11.94;100.00;99564.03;10495998;28;20210;-74
2021/05/20 08:30:55;;;;;;;2.97;2.73;;;;;;;12.11;100.00;99568.72;10496405;28;20191;-74
2021/05/20 08:36:14;;;;;;;2.67;2.47;;;;;;;12.22;100.00;99562.00;10495189;28;20629;-75
2021/05/20 08:41:35;;;;;;;4.33;2.67;;;;;;;12.42;100.00;99565.88;10496236;28;20175;-74
2021/05/20 08:46:57;;;;;;;7.03;3.83;;;;;;;13.02;100.00;99572.72;10499969;28;20214;-74
2021/05/20 08:52:16;;;;;;;3.67;2.43;;;;;;;13.12;100.00;99573.84;10501906;28;20748;-74
2021/05/20 08:57:36;;;;;;;4.30;3.90;;;;;;;12.76;100.00;99569.69;10503019;28;20187;-74
2021/05/20 09:03:13;;;;;;;2.10;1.90;;;;;;;13.00;100.00;99568.81;10500420;28;20167;-74
2021/05/20 09:08:32;;;;;;;3.33;2.57;;;;;;;13.15;100.00;99573.06;10501792;28;20641;-79
2021/05/20 09:13:52;;;;;;;4.93;3.50;;;;;;;13.58;100.00;99573.09;10502396;28;20553;-75
2021/05/20 09:19:21;;;;;;;3.03;2.73;;;;;;;13.79;100.00;99575.72;10500054;28;20223;-77
2021/05/20 09:24:48;;;;;;;2.20;2.00;;;;;;;13.75;100.00;99577.72;10501882;28;20247;-75
2021/05/20 09:30:26;;;;;;;4.10;3.30;;;;;;;15.16;100.00;99576.50;10501379;28;20223;-79
2021/05/20 09:35:49;;;;;;;5.53;4.03;;;;;;;15.73;91.00;99568.13;10500301;28;20171;-77
2021/05/20 09:41:17;;;;;;;4.60;2.50;;;;;;;15.92;81.24;99561.84;10501442;28;20175;-76
2021/05/20 09:46:42;;;;;;;3.90;3.00;;;;;;;16.33;67.30;99563.09;10500640;28;20203;-76
2021/05/20 09:52:21;;;;;;;2.10;1.90;;;;;;;15.36;68.79;99555.22;10499794;28;20210;-75
2021/05/20 09:57:40;;;;;;;2.40;2.20;;;;;;;14.54;70.67;99561.50;10499570;28;20179;-77
2021/05/20 10:03:08;;;;;;;3.03;2.73;;;;;;;14.64;69.17;99562.56;10499195;28;20216;-78
2021/05/20 10:08:33;;;;;;;2.93;1.90;;;;;;;14.65;70.12;99562.16;10500363;28;20222;-75
2021/05/20 10:13:52;;;;;;;3.00;1.80;;;;;;;15.14;66.83;99553.97;10500038;28;20194;-74
2021/05/20 10:19:11;;;;;;;3.73;2.00;;;;;;;15.50;68.03;99549.47;10497575;28;20175;-75
2021/05/20 10:24:31;;;;;;;2.00;1.80;;;;;;;16.43;62.90;99551.00;10498251;28;20194;-74
2021/05/20 10:29:51;;;;;;;4.00;2.63;;;;;;;17.38;59.62;99547.75;10497926;28;20256;-75
2021/05/20 10:35:14;;;;;;;3.20;2.50;;;;;;;18.30;57.99;99542.97;10496857;28;20187;-76
2021/05/20 10:40:34;;;;;;;4.07;2.43;;;;;;;18.41;56.01;99526.00;10498952;28;20197;-76
2021/05/20 10:46:01;;;;;;;2.07;1.70;;;;;;;18.68;52.68;99525.16;10498432;28;20206;-76
2021/05/20 10:51:25;;;;;;;2.83;2.33;;;;;;;17.93;56.56;99537.22;10510398;28;20681;-76
2021/05/20 10:56:52;;;;;;;2.53;2.33;;;;;;;19.11;53.83;99519.91;10498627;28;20175;-79
2021/05/20 11:02:15;;;;;;;5.40;2.80;;;;;;;19.52;50.41;99508.63;10498162;28;20174;-79
2021/05/20 11:07:34;;;;;;;2.53;1.87;;;;;;;17.44;54.85;99516.19;10496848;28;20207;-75
2021/05/20 11:12:58;;;;;;;1.83;1.73;;;;;;;16.21;60.87;99502.63;10497730;28;20641;-75
2021/05/20 11:18:34;;;;;;;2.80;2.03;;;;;;;16.97;57.32;99500.97;10496221;28;20182;-75
2021/05/20 11:24:14;;;;;;;6.63;2.20;;;;;;;18.71;59.62;99492.81;10497310;28;20669;-78
2021/05/20 11:29:39;;;;;;;3.63;1.70;;;;;;;18.60;52.20;99487.56;10495987;28;20222;-78
2021/05/20 11:35:57;;;;;;;1.67;1.40;;;;;;;15.87;63.11;99507.63;10495987;28;20175;-80
2021/05/20 11:40:55;;;;;;;2.00;1.90;;;;;;;13.77;78.93;99506.19;10496604;28;20191;-77
2021/05/20 11:46:23;;;;;;;2.60;0.80;;;;;;;13.08;78.86;99509.56;10496571;28;20568;-76
2021/05/20 11:51:58;;;;;;;1.90;1.33;;;;;;;12.99;83.64;99517.50;10495630;28;20802;-76
2021/05/20 11:57:19;;;;;;;1.67;1.07;;;;;;;12.94;79.45;99504.91;10496063;28;20171;-75
2021/05/20 12:02:39;;;;;;;1.40;1.20;;;;;;;12.75;90.53;99505.38;10495501;28;20182;-74
2021/05/20 12:07:59;;;;;;;2.73;1.80;;;;;;;12.78;100.00;99487.22;10496815;28;20194;-77
2021/05/20 12:13:19;;;;;;;1.40;1.30;;;;;;;13.51;94.36;99483.13;10496615;28;20187;-79
2021/05/20 12:18:41;;;;;;;1.90;1.80;;;;;;;13.57;87.08;99480.31;10496353;28;20186;-78
2021/05/20 12:24:01;;;;;;;2.40;2.20;;;;;;;13.76;91.43;99482.50;10503340;28;20285;-79
2021/05/20 12:29:20;;;;;;;3.40;2.17;;;;;;;13.92;92.96;99481.94;10503503;28;20254;-79
2021/05/20 12:34:40;;;;;;;2.80;1.70;;;;;;;14.48;88.28;99474.56;10502742;28;20178;-78
2021/05/20 12:40:00;;;;;;;3.03;2.30;;;;;;;16.05;90.69;99461.66;10502728;28;20183;-82
2021/05/20 12:45:27;;;;;;;4.03;2.47;;;;;;;17.94;72.84;99461.59;10503276;28;20206;-80
2021/05/20 12:50:45;;;;;;;3.90;2.60;;;;;;;19.21;72.59;99449.06;10502084;28;20191;-81
2021/05/20 12:56:29;;;;;;;3.23;2.67;;;;;;;20.83;58.40;99446.41;10502372;28;20175;-83
2021/05/20 13:01:50;;;;;;;2.27;2.07;;;;;;;21.77;55.31;99443.28;10502719;28;20182;-74
2021/05/20 13:07:14;;;;;;;3.53;2.40;;;;;;;20.90;52.60;99438.50;10500999;28;20206;-76
2021/05/20 13:12:44;;;;;;;8.43;2.27;;;;;;;20.31;53.64;99424.00;10502549;28;20167;-74
2021/05/20 13:18:36;;;;;;;2.30;2.07;;;;;;;20.39;50.74;99416.16;10500946;28;20216;-77
2021/05/20 13:23:54;;;;;;;3.67;1.50;;;;;;;19.93;47.20;99421.84;10501487;28;20238;-81
2021/05/20 13:29:13;;;;;;;2.47;1.80;;;;;;;18.74;50.42;99405.53;10500468;28;20641;-77
2021/05/20 13:34:32;;;;;;;1.83;1.73;;;;;;;19.02;52.32;99408.22;10500034;28;20262;-79
2021/05/20 13:39:51;;;;;;;2.53;2.03;;;;;;;20.13;47.90;99403.56;10501738;28;20621;-78
2021/05/20 13:45:11;;;;;;;1.60;1.50;;;;;;;18.83;52.96;99400.84;10501177;28;20296;-79
2021/05/20 13:50:30;;;;;;;3.03;1.90;;;;;;;17.51;57.47;99407.53;10499736;28;20195;-76
2021/05/20 13:55:52;;;;;;;1.80;1.43;;;;;;;17.46;54.39;99396.91;10501075;28;20182;-76
2021/05/20 14:01:11;;;;;;;5.30;3.33;;;;;;;17.19;54.14;99398.41;10500614;28;20163;-80
2021/05/20 14:06:30;;;;;;;2.10;2.00;;;;;;;17.08;55.15;99384.78;10497826;28;20202;-76
2021/05/20 14:11:49;;;;;;;1.40;1.10;;;;;;;18.24;50.11;99374.06;10499975;28;20186;-75
2021/05/20 14:17:08;;;;;;;1.83;1.40;;;;;;;19.87;47.04;99359.44;10500286;28;20181;-78
2021/05/20 14:22:28;;;;;;;10.73;2.17;;;;;;;19.39;45.49;99348.78;10497642;28;20174;-77
2021/05/20 14:27:47;;;;;;;1.53;1.40;;;;;;;20.16;44.41;99347.56;10498986;28;20226;-81
2021/05/20 14:33:06;;;;;;;1.43;1.33;;;;;;;19.76;44.42;99348.63;10498195;28;20617;-77
2021/05/20 14:38:28;;;;;;;3.97;3.63;;;;;;;19.35;45.04;99343.34;10498168;28;20257;-76
2021/05/20 14:43:48;;;;;;;1.60;1.50;;;;;;;18.34;46.08;99345.09;10497978;28;20202;-78
2021/05/20 14:49:10;;;;;;;1.27;1.17;;;;;;;18.22;47.58;99340.31;10497384;28;20178;-74
2021/05/20 14:54:32;;;;;;;1.20;1.00;;;;;;;18.21;46.78;99335.97;10498623;28;20191;-77
2021/05/20 15:05:35;;;;;;;4.70;1.07;;;;;;;17.75;51.07;99325.38;10496221;28;20206;-75
2021/05/20 15:11:04;;;;;;;1.53;1.40;;;;;;;17.66;48.71;99319.66;10498186;28;20175;-79
2021/05/20 15:16:26;;;;;;;4.80;1.80;;;;;;;18.72;45.99;99314.03;10497895;28;20175;-79
2021/05/20 15:21:45;;;;;;;4.07;2.30;;;;;;;19.59;42.59;99301.84;10496483;28;20249;-78
2021/05/20 15:27:04;;;;;;;1.17;0.90;;;;;;;19.44;43.23;99309.16;10496698;28;20218;-75
2021/05/20 15:32:23;;;;;;;4.40;1.20;;;;;;;18.15;46.02;99324.56;10496514;28;20166;-80
2021/05/20 15:37:42;;;;;;;2.70;1.97;;;;;;;18.04;45.26;99326.09;10497510;28;20175;-76
2021/05/20 15:43:01;;;;;;;1.10;0.90;;;;;;;17.64;46.78;99320.13;10497445;28;20629;-75
2021/05/20 15:53:59;;;;;;;1.40;1.10;;;;;;;18.24;46.97;99296.88;10498418;28;20174;-74
2021/05/20 15:59:18;;;;;;;1.23;1.13;;;;;;;18.38;45.71;99284.50;10505747;28;20175;-75
2021/05/20 16:04:37;;;;;;;2.17;1.20;;;;;;;18.23;48.53;99286.19;10502967;28;20285;-77
2021/05/20 16:10:05;;;;;;;1.30;1.20;;;;;;;18.44;47.71;99273.13;10505228;28;20202;-76
2021/05/20 16:15:26;;;;;;;1.40;1.30;;;;;;;18.25;47.10;99267.78;10504971;28;20178;-77
2021/05/20 16:20:47;;;;;;;1.83;1.20;;;;;;;18.33;46.90;99260.78;10503414;28;20174;-78
2021/05/20 16:37:11;;;;;;;1.30;1.20;;;;;;;17.42;50.36;99262.72;10503227;28;20175;-77
2021/05/20 16:42:32;;;;;;;1.77;1.67;;;;;;;16.84;53.00;99269.44;10502869;28;20257;-76
2021/05/20 16:47:51;;;;;;;1.20;0.97;;;;;;;16.95;54.41;99271.94;10501753;28;20210;-76
2021/05/20 16:53:13;;;;;;;1.30;1.17;;;;;;;16.97;53.90;99269.53;10503546;28;20190;-77
2021/05/20 16:58:42;;;;;;;1.40;1.30;;;;;;;17.22;53.95;99242.59;10503088;28;20179;-77
2021/05/20 17:04:01;;;;;;;1.33;1.23;;;;;;;16.95;54.71;99253.28;10500608;28;20293;-76
2021/05/20 17:09:20;;;;;;;1.30;1.20;;;;;;;16.81;54.72;99253.63;10501926;28;20182;-76
2021/05/20 17:14:39;;;;;;;2.13;1.40;;;;;;;16.61;56.96;99262.53;10501767;28;20174;-76
2021/05/20 17:19:58;;;;;;;4.00;1.70;;;;;;;16.52;56.57;99262.34;10500353;28;20186;-76
2021/05/20 17:25:18;;;;;;;2.67;1.50;;;;;;;16.40;57.62;99260.25;10500672;28;20206;-76
2021/05/20 17:30:37;;;;;;;3.87;1.87;;;;;;;16.42;59.08;99266.16;10501402;28;20222;-75
2021/05/20 17:35:57;;;;;;;1.83;1.63;;;;;;;16.57;59.18;99259.84;10500658;28;20179;-77
2021/05/20 17:41:16;;;;;;;1.20;0.97;;;;;;;16.55;57.66;99251.16;10500740;28;20178;-77
2021/05/20 17:46:35;;;;;;;2.07;1.40;;;;;;;16.42;59.04;99238.41;10501029;28;20261;-75
2021/05/20 17:51:54;;;;;;;1.00;0.60;;;;;;;16.26;58.38;99235.59;10500025;28;20202;-76
2021/05/20 17:57:13;;;;;;;1.40;1.03;;;;;;;16.14;60.12;99236.28;10500846;28;20179;-76
2021/05/20 18:02:32;;;;;;;1.10;0.90;;;;;;;16.08;61.22;99243.53;10500136;28;20166;-76
2021/05/20 18:07:54;;;;;;;3.33;2.40;;;;;;;15.87;62.36;99246.03;10499944;28;20214;-75
2021/05/20 18:13:26;;;;;;;1.63;1.37;;;;;;;15.82;62.77;99243.75;10500138;28;20203;-75
2021/05/20 18:24:15;;;;;;;1.23;1.13;;;;;;;15.57;65.16;99243.50;10499072;28;20218;-75
2021/05/20 18:29:36;;;;;;;1.53;0.83;;;;;;;15.44;64.11;99229.53;10498038;28;20242;-75
2021/05/20 18:34:55;;;;;;;1.07;0.90;;;;;;;15.43;63.75;99232.72;10498101;28;20245;-75
2021/05/20 18:40:15;;;;;;;3.87;2.03;;;;;;;15.31;62.38;99225.03;10512615;28;20178;-75
2021/05/20 18:45:37;;;;;;;1.77;1.37;;;;;;;15.23;62.81;99223.59;10473612;28;20255;-75
2021/05/20 18:50:57;;;;;;;1.20;1.00;;;;;;;15.17;61.78;99203.94;10486484;28;20207;-74
2021/05/20 18:56:20;;;;;;;1.23;1.13;;;;;;;14.84;63.47;99198.66;10457052;28;20183;-77
2021/05/20 19:01:41;;;;;;;1.10;0.83;;;;;;;14.77;67.11;99201.56;10484243;28;20632;-75
2021/05/20 19:07:10;;;;;;;1.47;1.23;;;;;;;14.66;67.77;99198.19;10495262;28;20202;-74
2021/05/20 19:12:30;;;;;;;1.50;1.27;;;;;;;14.57;66.99;99186.91;10496776;28;20167;-75
2021/05/20 19:17:50;;;;;;;1.30;1.20;;;;;;;14.46;67.72;99182.72;10476141;28;20175;-74
2021/05/20 19:23:10;;;;;;;1.17;1.00;;;;;;;14.34;68.29;99180.59;10455770;28;20191;-74
2021/05/20 19:28:32;;;;;;;2.40;0.90;;;;;;;14.17;69.57;99178.13;10453743;28;20222;-75
2021/05/20 19:33:54;;;;;;;1.40;1.03;;;;;;;14.16;69.14;99173.78;10454591;28;20163;-74
2021/05/20 19:39:13;;;;;;;1.83;1.20;;;;;;;14.04;70.31;99172.38;10455353;28;20661;-74
2021/05/20 19:44:33;;;;;;;1.40;1.17;;;;;;;13.98;70.85;99171.28;10454304;28;20207;-75
2021/05/20 19:50:05;;;;;;;1.40;1.30;;;;;;;13.93;70.85;99155.16;10456948;28;20182;-76
2021/05/20 20:00:56;;;;;;;3.43;1.60;;;;;;;13.81;71.50;99161.25;10496059;28;20174;-75
2021/05/20 20:11:46;;;;;;;2.10;1.50;;;;;;;13.82;71.65;99151.00;10496566;28;20166;-79
2021/05/20 20:17:05;;;;;;;1.60;1.40;;;;;;;13.70;72.41;99148.81;10496529;28;20560;-77
2021/05/20 20:22:30;;;;;;;3.53;2.40;;;;;;;13.62;73.10;99131.56;10495208;28;20194;-75
2021/05/20 20:27:55;;;;;;;2.57;2.37;;;;;;;13.59;74.71;99135.16;10494944;28;20231;-78
2021/05/20 20:33:47;;;;;;;2.23;2.03;;;;;;;13.52;75.58;99143.53;10495130;28;20213;-79
2021/05/20 20:44:34;;;;;;;2.00;1.70;;;;;;;13.15;79.20;99112.50;10502860;28;20228;-78
2021/05/20 20:49:54;;;;;;;1.93;1.70;;;;;;;13.20;79.78;99112.06;10502428;28;20202;-76
2021/05/20 20:55:14;;;;;;;2.40;1.63;;;;;;;13.27;80.90;99116.69;10503517;28;20524;-78
2021/05/20 21:00:33;;;;;;;2.37;2.20;;;;;;;12.98;82.95;99118.28;10502207;28;20664;-76
2021/05/20 21:05:52;;;;;;;2.80;1.60;;;;;;;12.94;83.62;99107.28;10501548;28;20198;-75
2021/05/20 21:11:12;;;;;;;5.60;2.17;;;;;;;12.96;84.03;99099.34;10501761;28;20202;-75
2021/05/20 21:16:31;;;;;;;2.83;2.63;;;;;;;12.88;84.92;99092.34;10502488;28;20187;-75
2021/05/20 21:21:52;;;;;;;1.40;1.30;;;;;;;12.81;85.99;99086.13;10500912;28;20202;-75
2021/05/20 21:27:11;;;;;;;1.50;1.40;;;;;;;12.71;86.80;99075.97;10501587;28;20230;-75
2021/05/20 21:32:30;;;;;;;1.53;1.43;;;;;;;12.63;88.15;99088.31;10502084;28;20179;-78
2021/05/20 21:37:49;;;;;;;5.10;2.33;;;;;;;12.66;88.69;99081.16;10502039;28;20180;-79
2021/05/20 21:43:08;;;;;;;2.87;1.40;;;;;;;12.52;90.06;99076.59;10501780;28;20178;-79
2021/05/20 21:48:27;;;;;;;2.57;1.70;;;;;;;12.46;90.97;99069.97;10499126;28;20551;-78
2021/05/20 21:53:46;;;;;;;3.43;1.37;;;;;;;12.42;92.42;99062.94;10500977;28;20182;-77
2021/05/20 21:59:05;;;;;;;1.40;1.30;;;;;;;12.27;92.42;99073.34;10501412;28;20186;-78
2021/05/20 22:04:27;;;;;;;1.73;1.63;;;;;;;12.17;93.63;99063.22;10499339;28;20206;-77
2021/05/20 22:09:47;;;;;;;1.67;1.47;;;;;;;12.28;93.77;99074.91;10499343;28;20182;-75
2021/05/20 22:15:08;;;;;;;1.60;1.43;;;;;;;12.28;92.50;99063.88;10500293;28;20175;-77
2021/05/20 22:20:28;;;;;;;5.43;2.60;;;;;;;12.07;93.74;99047.56;10498701;28;20673;-76
2021/05/20 22:26:05;;;;;;;4.10;2.60;;;;;;;12.18;93.92;99052.94;10498516;28;20226;-76
2021/05/20 22:31:49;;;;;;;3.90;1.97;;;;;;;12.02;94.24;99031.47;10499584;28;20179;-78
2021/05/20 22:37:09;;;;;;;2.30;2.10;;;;;;;11.87;97.10;99009.97;10497978;28;20190;-77
2021/05/20 22:42:27;;;;;;;5.80;2.00;;;;;;;11.90;96.31;99008.34;10499018;28;20183;-76
2021/05/20 22:47:50;;;;;;;2.07;1.87;;;;;;;11.93;95.49;98995.31;10497000;28;20681;-75
2021/05/20 22:53:09;;;;;;;1.90;1.80;;;;;;;11.94;94.71;98998.84;10497754;28;20183;-75
2021/05/20 22:58:28;;;;;;;2.23;1.43;;;;;;;11.87;96.03;99009.19;10498567;28;20179;-78
2021/05/20 23:03:48;;;;;;;4.77;3.07;;;;;;;11.83;95.17;99008.44;10495283;28;20207;-78
2021/05/20 23:09:07;;;;;;;3.30;2.10;;;;;;;11.75;95.60;99006.94;10498438;28;20573;-76
2021/05/20 23:14:26;;;;;;;2.03;1.60;;;;;;;11.61;95.51;98990.53;10498149;28;20603;-79
2021/05/20 23:19:45;;;;;;;2.30;2.10;;;;;;;11.65;93.53;98986.56;10496607;28;20206;-76
2021/05/20 23:25:04;;;;;;;1.77;1.67;;;;;;;11.56;93.97;98982.69;10496722;28;20206;-76
2021/05/20 23:30:23;;;;;;;1.87;1.40;;;;;;;11.61;93.34;98966.50;10497065;28;20211;-75
2021/05/20 23:35:42;;;;;;;2.03;1.80;;;;;;;11.61;93.29;98963.00;10496187;28;20178;-76
2021/05/20 23:41:06;;;;;;;5.97;3.47;;;;;;;11.46;94.34;98964.28;10497434;28;20297;-76
2021/05/20 23:46:25;;;;;;;4.93;1.77;;;;;;;11.43;95.75;98943.06;10497085;28;20195;-75
2021/05/20 23:51:45;;;;;;;2.90;2.60;;;;;;;11.34;97.19;98926.22;10496038;28;20197;-75
2021/05/20 23:57:04;;;;;;;6.80;1.93;;;;;;;11.29;97.57;98910.91;10496104;28;20171;-76
